sensor_id;sensor_type;location;lat;lon;timestamp;P1;durP1;ratioP1;P2;durP2;ratioP2
41721;SDS011;27407;24.142;-110.310;2023-02-20T00:00:34;6.95;;;1.80;;
41721;SDS011;27407;24.142;-110.310;2023-02-20T00:03:01;8.48;;;1.90;;
41721;SDS011;27407;24.142;-110.310;2023-02-20T00:05:28;12.40;;;1.88;;
41721;SDS011;27407;24.142;-110.310;2023-02-20T00:07:55;9.43;;;1.90;;
41721;SDS011;27407;24.142;-110.310;2023-02-20T00:10:22;12.45;;;2.10;;
41721;SDS011;27407;24.142;-110.310;2023-02-20T00:12:49;11.85;;;1.98;;
41721;SDS011;27407;24.142;-110.310;2023-02-20T00:15:17;9.30;;;2.35;;
41721;SDS011;27407;24.142;-110.310;2023-02-20T00:17:45;16.30;;;2.42;;
41721;SDS011;27407;24.142;-110.310;2023-02-20T00:20:13;11.90;;;1.80;;
41721;SDS011;27407;24.142;-110.310;2023-02-20T00:22:45;16.60;;;2.28;;
41721;SDS011;27407;24.142;-110.310;2023-02-20T00:25:14;19.92;;;2.28;;
41721;SDS011;27407;24.142;-110.310;2023-02-20T00:27:42;16.00;;;1.95;;
41721;SDS011;27407;24.142;-110.310;2023-02-20T00:30:11;16.80;;;2.85;;
41721;SDS011;27407;24.142;-110.310;2023-02-20T00:32:43;9.80;;;2.45;;
41721;SDS011;27407;24.142;-110.310;2023-02-20T00:35:10;18.70;;;2.80;;
41721;SDS011;27407;24.142;-110.310;2023-02-20T00:37:37;22.90;;;2.53;;
41721;SDS011;27407;24.142;-110.310;2023-02-20T00:40:04;20.45;;;2.28;;
41721;SDS011;27407;24.142;-110.310;2023-02-20T00:42:32;12.48;;;2.28;;
41721;SDS011;27407;24.142;-110.310;2023-02-20T00:44:58;13.23;;;2.17;;
41721;SDS011;27407;24.142;-110.310;2023-02-20T00:47:25;20.52;;;2.33;;
41721;SDS011;27407;24.142;-110.310;2023-02-20T00:49:52;17.88;;;2.75;;
41721;SDS011;27407;24.142;-110.310;2023-02-20T00:52:18;18.20;;;1.95;;
41721;SDS011;27407;24.142;-110.310;2023-02-20T00:54:45;27.63;;;3.00;;
41721;SDS011;27407;24.142;-110.310;2023-02-20T00:57:12;19.30;;;2.85;;
41721;SDS011;27407;24.142;-110.310;2023-02-20T00:59:38;25.00;;;2.95;;
41721;SDS011;27407;24.142;-110.310;2023-02-20T01:02:05;16.88;;;2.58;;
41721;SDS011;27407;24.142;-110.310;2023-02-20T01:04:32;10.88;;;1.50;;
41721;SDS011;27407;24.142;-110.310;2023-02-20T01:06:59;11.60;;;1.50;;
41721;SDS011;27407;24.142;-110.310;2023-02-20T01:09:25;21.15;;;2.85;;
41721;SDS011;27407;24.142;-110.310;2023-02-20T01:11:52;22.17;;;2.20;;
41721;SDS011;27407;24.142;-110.310;2023-02-20T01:14:20;15.68;;;2.40;;
41721;SDS011;27407;24.142;-110.310;2023-02-20T01:16:47;7.85;;;1.70;;
41721;SDS011;27407;24.142;-110.310;2023-02-20T01:19:18;17.05;;;2.53;;
41721;SDS011;27407;24.142;-110.310;2023-02-20T01:21:46;16.70;;;2.38;;
41721;SDS011;27407;24.142;-110.310;2023-02-20T01:24:13;12.80;;;2.15;;
41721;SDS011;27407;24.142;-110.310;2023-02-20T01:26:42;25.23;;;3.30;;
41721;SDS011;27407;24.142;-110.310;2023-02-20T01:29:10;26.45;;;5.05;;
41721;SDS011;27407;24.142;-110.310;2023-02-20T01:31:37;43.33;;;6.45;;
41721;SDS011;27407;24.142;-110.310;2023-02-20T01:34:04;35.25;;;6.95;;
41721;SDS011;27407;24.142;-110.310;2023-02-20T01:36:31;68.97;;;13.18;;
41721;SDS011;27407;24.142;-110.310;2023-02-20T01:38:58;102.93;;;18.13;;
41721;SDS011;27407;24.142;-110.310;2023-02-20T01:41:25;101.85;;;17.20;;
41721;SDS011;27407;24.142;-110.310;2023-02-20T01:43:52;146.98;;;23.98;;
41721;SDS011;27407;24.142;-110.310;2023-02-20T01:49:03;172.93;;;39.13;;
41721;SDS011;27407;24.142;-110.310;2023-02-20T01:51:36;131.82;;;29.20;;
41721;SDS011;27407;24.142;-110.310;2023-02-20T01:54:07;21.52;;;3.63;;
41721;SDS011;27407;24.142;-110.310;2023-02-20T01:56:38;18.48;;;2.97;;
41721;SDS011;27407;24.142;-110.310;2023-02-20T01:59:06;26.58;;;3.05;;
41721;SDS011;27407;24.142;-110.310;2023-02-20T02:01:34;26.43;;;2.57;;
41721;SDS011;27407;24.142;-110.310;2023-02-20T02:04:03;18.58;;;2.30;;
41721;SDS011;27407;24.142;-110.310;2023-02-20T02:06:33;15.00;;;1.93;;
41721;SDS011;27407;24.142;-110.310;2023-02-20T02:09:06;28.03;;;2.13;;
41721;SDS011;27407;24.142;-110.310;2023-02-20T02:11:40;22.17;;;2.53;;
41721;SDS011;27407;24.142;-110.310;2023-02-20T02:14:07;18.60;;;2.43;;
41721;SDS011;27407;24.142;-110.310;2023-02-20T02:24:48;17.63;;;2.33;;
41721;SDS011;27407;24.142;-110.310;2023-02-20T02:36:43;14.83;;;2.70;;
41721;SDS011;27407;24.142;-110.310;2023-02-20T02:45:08;17.17;;;1.90;;
41721;SDS011;27407;24.142;-110.310;2023-02-20T02:48:25;26.03;;;2.87;;
41721;SDS011;27407;24.142;-110.310;2023-02-20T02:51:09;25.33;;;2.03;;
41721;SDS011;27407;24.142;-110.310;2023-02-20T02:56:32;15.33;;;2.27;;
41721;SDS011;27407;24.142;-110.310;2023-02-20T02:59:03;15.93;;;1.93;;
41721;SDS011;27407;24.142;-110.310;2023-02-20T03:01:34;12.87;;;2.00;;
41721;SDS011;27407;24.142;-110.310;2023-02-20T03:04:07;17.10;;;2.13;;
41721;SDS011;27407;24.142;-110.310;2023-02-20T03:06:38;17.83;;;2.00;;
41721;SDS011;27407;24.142;-110.310;2023-02-20T03:09:10;22.60;;;2.10;;
41721;SDS011;27407;24.142;-110.310;2023-02-20T03:11:49;42.90;;;3.27;;
41721;SDS011;27407;24.142;-110.310;2023-02-20T03:14:20;12.10;;;2.10;;
41721;SDS011;27407;24.142;-110.310;2023-02-20T03:17:29;37.40;;;3.60;;
41721;SDS011;27407;24.142;-110.310;2023-02-20T03:20:10;11.87;;;1.93;;
41721;SDS011;27407;24.142;-110.310;2023-02-20T03:22:57;18.13;;;2.63;;
41721;SDS011;27407;24.142;-110.310;2023-02-20T03:25:27;8.60;;;1.83;;
41721;SDS011;27407;24.142;-110.310;2023-02-20T03:28:10;13.73;;;2.30;;
41721;SDS011;27407;24.142;-110.310;2023-02-20T03:30:55;25.07;;;2.70;;
41721;SDS011;27407;24.142;-110.310;2023-02-20T03:33:33;20.70;;;2.63;;
41721;SDS011;27407;24.142;-110.310;2023-02-20T03:36:48;7.13;;;1.80;;
41721;SDS011;27407;24.142;-110.310;2023-02-20T03:39:36;18.63;;;2.43;;
41721;SDS011;27407;24.142;-110.310;2023-02-20T03:42:24;10.67;;;1.57;;
41721;SDS011;27407;24.142;-110.310;2023-02-20T03:45:12;26.23;;;3.20;;
41721;SDS011;27407;24.142;-110.310;2023-02-20T03:47:41;17.67;;;2.20;;
41721;SDS011;27407;24.142;-110.310;2023-02-20T03:50:11;11.27;;;2.10;;
41721;SDS011;27407;24.142;-110.310;2023-02-20T03:52:57;12.87;;;1.87;;
41721;SDS011;27407;24.142;-110.310;2023-02-20T03:55:24;20.13;;;1.93;;
41721;SDS011;27407;24.142;-110.310;2023-02-20T03:57:52;20.87;;;2.50;;
41721;SDS011;27407;24.142;-110.310;2023-02-20T04:00:23;20.13;;;1.90;;
41721;SDS011;27407;24.142;-110.310;2023-02-20T04:02:55;10.57;;;1.70;;
41721;SDS011;27407;24.142;-110.310;2023-02-20T04:05:28;21.77;;;2.37;;
41721;SDS011;27407;24.142;-110.310;2023-02-20T04:08:02;28.03;;;3.90;;
41721;SDS011;27407;24.142;-110.310;2023-02-20T04:10:41;20.83;;;2.37;;
41721;SDS011;27407;24.142;-110.310;2023-02-20T04:13:15;35.67;;;3.43;;
41721;SDS011;27407;24.142;-110.310;2023-02-20T04:15:43;37.90;;;3.70;;
41721;SDS011;27407;24.142;-110.310;2023-02-20T04:18:10;12.00;;;2.30;;
41721;SDS011;27407;24.142;-110.310;2023-02-20T04:20:42;33.23;;;4.23;;
41721;SDS011;27407;24.142;-110.310;2023-02-20T04:23:13;20.43;;;2.63;;
41721;SDS011;27407;24.142;-110.310;2023-02-20T04:25:46;16.07;;;2.50;;
41721;SDS011;27407;24.142;-110.310;2023-02-20T04:28:17;13.00;;;2.27;;
41721;SDS011;27407;24.142;-110.310;2023-02-20T04:30:44;19.33;;;2.00;;
41721;SDS011;27407;24.142;-110.310;2023-02-20T04:33:12;16.30;;;1.63;;
41721;SDS011;27407;24.142;-110.310;2023-02-20T04:35:40;18.37;;;1.97;;
41721;SDS011;27407;24.142;-110.310;2023-02-20T04:38:07;25.97;;;2.73;;
41721;SDS011;27407;24.142;-110.310;2023-02-20T04:40:34;14.30;;;2.40;;
41721;SDS011;27407;24.142;-110.310;2023-02-20T04:43:01;20.03;;;2.37;;
41721;SDS011;27407;24.142;-110.310;2023-02-20T04:45:28;14.13;;;1.67;;
41721;SDS011;27407;24.142;-110.310;2023-02-20T04:47:55;10.73;;;1.90;;
41721;SDS011;27407;24.142;-110.310;2023-02-20T04:50:23;12.07;;;2.03;;
41721;SDS011;27407;24.142;-110.310;2023-02-20T04:52:50;17.20;;;2.20;;
41721;SDS011;27407;24.142;-110.310;2023-02-20T04:55:18;21.27;;;2.13;;
41721;SDS011;27407;24.142;-110.310;2023-02-20T04:57:45;45.17;;;3.97;;
41721;SDS011;27407;24.142;-110.310;2023-02-20T05:00:13;18.10;;;1.80;;
41721;SDS011;27407;24.142;-110.310;2023-02-20T05:02:40;11.90;;;1.70;;
41721;SDS011;27407;24.142;-110.310;2023-02-20T05:05:14;23.00;;;2.90;;
41721;SDS011;27407;24.142;-110.310;2023-02-20T05:07:46;26.53;;;3.07;;
41721;SDS011;27407;24.142;-110.310;2023-02-20T05:10:17;23.60;;;2.20;;
41721;SDS011;27407;24.142;-110.310;2023-02-20T05:12:45;15.57;;;2.10;;
41721;SDS011;27407;24.142;-110.310;2023-02-20T05:15:12;37.77;;;2.90;;
41721;SDS011;27407;24.142;-110.310;2023-02-20T05:17:39;37.37;;;3.73;;
41721;SDS011;27407;24.142;-110.310;2023-02-20T05:20:06;15.50;;;2.23;;
41721;SDS011;27407;24.142;-110.310;2023-02-20T05:22:34;31.80;;;3.20;;
41721;SDS011;27407;24.142;-110.310;2023-02-20T05:25:01;27.60;;;2.73;;
41721;SDS011;27407;24.142;-110.310;2023-02-20T05:27:28;28.07;;;3.20;;
41721;SDS011;27407;24.142;-110.310;2023-02-20T05:29:55;14.63;;;2.47;;
41721;SDS011;27407;24.142;-110.310;2023-02-20T05:32:25;15.40;;;3.60;;
41721;SDS011;27407;24.142;-110.310;2023-02-20T05:34:53;22.53;;;3.50;;
41721;SDS011;27407;24.142;-110.310;2023-02-20T05:37:20;16.77;;;2.80;;
41721;SDS011;27407;24.142;-110.310;2023-02-20T05:39:48;17.57;;;2.87;;
41721;SDS011;27407;24.142;-110.310;2023-02-20T05:42:18;28.03;;;2.67;;
41721;SDS011;27407;24.142;-110.310;2023-02-20T05:44:47;20.77;;;2.10;;
41721;SDS011;27407;24.142;-110.310;2023-02-20T05:47:14;22.80;;;2.63;;
41721;SDS011;27407;24.142;-110.310;2023-02-20T05:49:41;23.40;;;2.87;;
41721;SDS011;27407;24.142;-110.310;2023-02-20T05:52:08;14.70;;;2.30;;
41721;SDS011;27407;24.142;-110.310;2023-02-20T05:54:37;21.47;;;2.60;;
41721;SDS011;27407;24.142;-110.310;2023-02-20T05:57:04;7.43;;;2.17;;
41721;SDS011;27407;24.142;-110.310;2023-02-20T05:59:31;14.10;;;2.17;;
41721;SDS011;27407;24.142;-110.310;2023-02-20T06:01:58;16.57;;;2.50;;
41721;SDS011;27407;24.142;-110.310;2023-02-20T06:04:25;16.33;;;2.13;;
41721;SDS011;27407;24.142;-110.310;2023-02-20T06:06:52;14.97;;;2.30;;
41721;SDS011;27407;24.142;-110.310;2023-02-20T06:09:19;18.10;;;2.37;;
41721;SDS011;27407;24.142;-110.310;2023-02-20T06:11:53;14.20;;;2.40;;
41721;SDS011;27407;24.142;-110.310;2023-02-20T06:14:22;24.17;;;2.33;;
41721;SDS011;27407;24.142;-110.310;2023-02-20T06:16:49;14.53;;;2.10;;
41721;SDS011;27407;24.142;-110.310;2023-02-20T06:19:20;11.97;;;2.50;;
41721;SDS011;27407;24.142;-110.310;2023-02-20T06:21:52;13.43;;;2.00;;
41721;SDS011;27407;24.142;-110.310;2023-02-20T06:24:19;8.53;;;1.67;;
41721;SDS011;27407;24.142;-110.310;2023-02-20T06:26:46;12.33;;;1.77;;
41721;SDS011;27407;24.142;-110.310;2023-02-20T06:29:16;18.33;;;2.13;;
41721;SDS011;27407;24.142;-110.310;2023-02-20T06:31:44;10.43;;;1.67;;
41721;SDS011;27407;24.142;-110.310;2023-02-20T06:34:10;13.37;;;2.20;;
41721;SDS011;27407;24.142;-110.310;2023-02-20T06:36:38;14.37;;;1.93;;
41721;SDS011;27407;24.142;-110.310;2023-02-20T06:39:06;9.07;;;1.47;;
41721;SDS011;27407;24.142;-110.310;2023-02-20T06:41:35;12.53;;;2.43;;
41721;SDS011;27407;24.142;-110.310;2023-02-20T06:44:01;18.93;;;2.57;;
41721;SDS011;27407;24.142;-110.310;2023-02-20T06:56:34;17.20;;;2.30;;
41721;SDS011;27407;24.142;-110.310;2023-02-20T06:59:02;16.37;;;2.43;;
41721;SDS011;27407;24.142;-110.310;2023-02-20T07:01:35;13.47;;;1.97;;
41721;SDS011;27407;24.142;-110.310;2023-02-20T07:04:05;28.50;;;2.57;;
41721;SDS011;27407;24.142;-110.310;2023-02-20T07:06:32;19.90;;;2.37;;
41721;SDS011;27407;24.142;-110.310;2023-02-20T07:08:59;13.93;;;2.20;;
41721;SDS011;27407;24.142;-110.310;2023-02-20T07:11:26;12.00;;;1.47;;
41721;SDS011;27407;24.142;-110.310;2023-02-20T07:13:52;19.70;;;2.57;;
41721;SDS011;27407;24.142;-110.310;2023-02-20T07:16:21;12.30;;;2.50;;
41721;SDS011;27407;24.142;-110.310;2023-02-20T07:18:48;12.63;;;2.10;;
41721;SDS011;27407;24.142;-110.310;2023-02-20T07:21:15;12.87;;;2.17;;
41721;SDS011;27407;24.142;-110.310;2023-02-20T07:23:43;15.10;;;2.40;;
41721;SDS011;27407;24.142;-110.310;2023-02-20T07:26:17;24.40;;;1.87;;
41721;SDS011;27407;24.142;-110.310;2023-02-20T07:28:43;14.57;;;2.40;;
41721;SDS011;27407;24.142;-110.310;2023-02-20T07:31:10;12.80;;;1.50;;
41721;SDS011;27407;24.142;-110.310;2023-02-20T07:33:37;12.83;;;2.20;;
41721;SDS011;27407;24.142;-110.310;2023-02-20T07:36:03;11.90;;;2.13;;
41721;SDS011;27407;24.142;-110.310;2023-02-20T07:38:30;10.90;;;1.80;;
41721;SDS011;27407;24.142;-110.310;2023-02-20T07:40:57;14.87;;;1.97;;
41721;SDS011;27407;24.142;-110.310;2023-02-20T07:43:24;14.57;;;1.70;;
41721;SDS011;27407;24.142;-110.310;2023-02-20T07:45:50;7.17;;;1.60;;
41721;SDS011;27407;24.142;-110.310;2023-02-20T07:48:17;19.70;;;2.10;;
41721;SDS011;27407;24.142;-110.310;2023-02-20T07:50:44;10.40;;;2.30;;
41721;SDS011;27407;24.142;-110.310;2023-02-20T07:53:14;13.53;;;2.23;;
41721;SDS011;27407;24.142;-110.310;2023-02-20T07:55:42;14.43;;;1.93;;
41721;SDS011;27407;24.142;-110.310;2023-02-20T07:58:09;12.70;;;1.90;;
41721;SDS011;27407;24.142;-110.310;2023-02-20T08:00:35;10.37;;;1.73;;
41721;SDS011;27407;24.142;-110.310;2023-02-20T08:03:02;9.60;;;1.87;;
41721;SDS011;27407;24.142;-110.310;2023-02-20T08:05:29;12.23;;;2.10;;
41721;SDS011;27407;24.142;-110.310;2023-02-20T08:07:55;17.20;;;3.10;;
41721;SDS011;27407;24.142;-110.310;2023-02-20T08:10:25;15.87;;;2.33;;
41721;SDS011;27407;24.142;-110.310;2023-02-20T08:12:53;10.93;;;2.30;;
41721;SDS011;27407;24.142;-110.310;2023-02-20T08:15:20;8.37;;;1.73;;
41721;SDS011;27407;24.142;-110.310;2023-02-20T08:17:48;10.93;;;2.10;;
41721;SDS011;27407;24.142;-110.310;2023-02-20T08:20:15;8.90;;;1.50;;
41721;SDS011;27407;24.142;-110.310;2023-02-20T08:22:43;17.77;;;2.00;;
41721;SDS011;27407;24.142;-110.310;2023-02-20T08:25:11;11.67;;;1.67;;
41721;SDS011;27407;24.142;-110.310;2023-02-20T08:27:40;12.07;;;1.63;;
41721;SDS011;27407;24.142;-110.310;2023-02-20T08:30:19;15.63;;;1.90;;
41721;SDS011;27407;24.142;-110.310;2023-02-20T08:32:49;8.93;;;1.37;;
41721;SDS011;27407;24.142;-110.310;2023-02-20T08:35:17;15.33;;;1.70;;
41721;SDS011;27407;24.142;-110.310;2023-02-20T08:37:44;17.27;;;2.10;;
41721;SDS011;27407;24.142;-110.310;2023-02-20T08:40:11;15.07;;;2.00;;
41721;SDS011;27407;24.142;-110.310;2023-02-20T08:42:38;16.60;;;1.90;;
41721;SDS011;27407;24.142;-110.310;2023-02-20T08:45:05;12.50;;;2.10;;
41721;SDS011;27407;24.142;-110.310;2023-02-20T08:47:33;12.87;;;2.70;;
41721;SDS011;27407;24.142;-110.310;2023-02-20T08:50:00;7.73;;;1.73;;
41721;SDS011;27407;24.142;-110.310;2023-02-20T08:52:26;8.47;;;1.70;;
41721;SDS011;27407;24.142;-110.310;2023-02-20T08:54:53;12.00;;;1.63;;
41721;SDS011;27407;24.142;-110.310;2023-02-20T08:57:20;8.67;;;1.63;;
41721;SDS011;27407;24.142;-110.310;2023-02-20T08:59:47;14.57;;;2.00;;
41721;SDS011;27407;24.142;-110.310;2023-02-20T09:02:14;22.13;;;2.90;;
41721;SDS011;27407;24.142;-110.310;2023-02-20T09:04:48;13.80;;;1.70;;
41721;SDS011;27407;24.142;-110.310;2023-02-20T09:07:15;5.17;;;1.67;;
41721;SDS011;27407;24.142;-110.310;2023-02-20T09:09:42;11.33;;;2.30;;
41721;SDS011;27407;24.142;-110.310;2023-02-20T09:12:09;12.83;;;2.07;;
41721;SDS011;27407;24.142;-110.310;2023-02-20T09:14:36;9.53;;;1.87;;
41721;SDS011;27407;24.142;-110.310;2023-02-20T09:17:03;15.33;;;2.20;;
41721;SDS011;27407;24.142;-110.310;2023-02-20T09:19:30;5.40;;;1.60;;
41721;SDS011;27407;24.142;-110.310;2023-02-20T09:21:57;7.73;;;1.53;;
41721;SDS011;27407;24.142;-110.310;2023-02-20T09:24:23;7.50;;;1.60;;
41721;SDS011;27407;24.142;-110.310;2023-02-20T09:26:56;10.23;;;1.70;;
41721;SDS011;27407;24.142;-110.310;2023-02-20T09:29:23;10.63;;;1.67;;
41721;SDS011;27407;24.142;-110.310;2023-02-20T09:31:49;11.20;;;1.50;;
41721;SDS011;27407;24.142;-110.310;2023-02-20T09:34:16;7.73;;;1.80;;
41721;SDS011;27407;24.142;-110.310;2023-02-20T09:36:43;18.70;;;1.73;;
41721;SDS011;27407;24.142;-110.310;2023-02-20T09:39:09;12.93;;;2.17;;
41721;SDS011;27407;24.142;-110.310;2023-02-20T09:47:07;14.40;;;2.43;;
41721;SDS011;27407;24.142;-110.310;2023-02-20T09:50:02;12.00;;;1.70;;
41721;SDS011;27407;24.142;-110.310;2023-02-20T09:52:37;13.63;;;1.90;;
41721;SDS011;27407;24.142;-110.310;2023-02-20T09:55:10;8.47;;;1.73;;
41721;SDS011;27407;24.142;-110.310;2023-02-20T09:57:39;15.90;;;2.20;;
41721;SDS011;27407;24.142;-110.310;2023-02-20T10:02:40;9.37;;;1.83;;
41721;SDS011;27407;24.142;-110.310;2023-02-20T10:05:28;9.70;;;1.50;;
41721;SDS011;27407;24.142;-110.310;2023-02-20T10:07:56;6.97;;;1.40;;
41721;SDS011;27407;24.142;-110.310;2023-02-20T10:10:24;11.23;;;1.93;;
41721;SDS011;27407;24.142;-110.310;2023-02-20T10:16:18;21.47;;;2.40;;
41721;SDS011;27407;24.142;-110.310;2023-02-20T10:19:01;14.40;;;1.77;;
41721;SDS011;27407;24.142;-110.310;2023-02-20T10:29:58;27.97;;;3.97;;
41721;SDS011;27407;24.142;-110.310;2023-02-20T10:32:39;14.23;;;2.10;;
41721;SDS011;27407;24.142;-110.310;2023-02-20T10:35:12;9.53;;;2.20;;
41721;SDS011;27407;24.142;-110.310;2023-02-20T10:37:45;13.20;;;3.03;;
41721;SDS011;27407;24.142;-110.310;2023-02-20T10:40:30;13.03;;;2.27;;
41721;SDS011;27407;24.142;-110.310;2023-02-20T10:43:15;13.53;;;1.90;;
41721;SDS011;27407;24.142;-110.310;2023-02-20T10:48:34;13.47;;;2.47;;
41721;SDS011;27407;24.142;-110.310;2023-02-20T10:53:44;12.47;;;1.60;;
41721;SDS011;27407;24.142;-110.310;2023-02-20T10:56:24;7.30;;;2.17;;
41721;SDS011;27407;24.142;-110.310;2023-02-20T10:59:08;6.57;;;1.83;;
41721;SDS011;27407;24.142;-110.310;2023-02-20T11:02:02;4.43;;;1.40;;
41721;SDS011;27407;24.142;-110.310;2023-02-20T11:04:36;8.00;;;1.57;;
41721;SDS011;27407;24.142;-110.310;2023-02-20T11:07:11;9.27;;;1.47;;
41721;SDS011;27407;24.142;-110.310;2023-02-20T11:09:40;19.73;;;2.43;;
41721;SDS011;27407;24.142;-110.310;2023-02-20T11:12:07;9.27;;;1.73;;
41721;SDS011;27407;24.142;-110.310;2023-02-20T11:14:39;13.20;;;2.30;;
41721;SDS011;27407;24.142;-110.310;2023-02-20T11:17:14;11.27;;;1.90;;
41721;SDS011;27407;24.142;-110.310;2023-02-20T11:19:56;10.37;;;2.40;;
41721;SDS011;27407;24.142;-110.310;2023-02-20T11:22:39;9.37;;;2.03;;
41721;SDS011;27407;24.142;-110.310;2023-02-20T11:25:14;16.23;;;2.07;;
41721;SDS011;27407;24.142;-110.310;2023-02-20T11:27:42;35.33;;;3.23;;
41721;SDS011;27407;24.142;-110.310;2023-02-20T11:32:40;15.90;;;2.50;;
41721;SDS011;27407;24.142;-110.310;2023-02-20T11:37:42;28.83;;;2.73;;
41721;SDS011;27407;24.142;-110.310;2023-02-20T11:40:36;11.73;;;1.87;;
41721;SDS011;27407;24.142;-110.310;2023-02-20T11:43:36;3.90;;;1.47;;
41721;SDS011;27407;24.142;-110.310;2023-02-20T11:46:07;10.10;;;1.30;;
41721;SDS011;27407;24.142;-110.310;2023-02-20T11:48:58;9.60;;;1.60;;
41721;SDS011;27407;24.142;-110.310;2023-02-20T11:51:30;10.60;;;1.63;;
41721;SDS011;27407;24.142;-110.310;2023-02-20T11:56:37;16.07;;;1.53;;
41721;SDS011;27407;24.142;-110.310;2023-02-20T12:05:01;7.20;;;1.73;;
41721;SDS011;27407;24.142;-110.310;2023-02-20T12:07:42;16.23;;;2.53;;
41721;SDS011;27407;24.142;-110.310;2023-02-20T12:12:45;12.50;;;1.57;;
41721;SDS011;27407;24.142;-110.310;2023-02-20T12:15:12;11.07;;;2.57;;
41721;SDS011;27407;24.142;-110.310;2023-02-20T12:20:23;9.97;;;2.20;;
41721;SDS011;27407;24.142;-110.310;2023-02-20T12:23:03;10.53;;;1.97;;
41721;SDS011;27407;24.142;-110.310;2023-02-20T12:31:17;7.93;;;1.70;;
41721;SDS011;27407;24.142;-110.310;2023-02-20T12:37:23;8.90;;;1.90;;
41721;SDS011;27407;24.142;-110.310;2023-02-20T12:51:05;10.17;;;2.23;;
41721;SDS011;27407;24.142;-110.310;2023-02-20T12:56:59;6.57;;;1.87;;
41721;SDS011;27407;24.142;-110.310;2023-02-20T13:02:24;16.07;;;2.90;;
41721;SDS011;27407;24.142;-110.310;2023-02-20T13:04:55;9.63;;;2.27;;
41721;SDS011;27407;24.142;-110.310;2023-02-20T13:07:25;6.93;;;2.23;;
41721;SDS011;27407;24.142;-110.310;2023-02-20T13:10:00;9.83;;;2.37;;
41721;SDS011;27407;24.142;-110.310;2023-02-20T13:12:28;15.13;;;3.37;;
41721;SDS011;27407;24.142;-110.310;2023-02-20T13:14:59;11.40;;;3.37;;
41721;SDS011;27407;24.142;-110.310;2023-02-20T13:20:25;21.70;;;3.60;;
41721;SDS011;27407;24.142;-110.310;2023-02-20T13:25:51;30.37;;;2.93;;
41721;SDS011;27407;24.142;-110.310;2023-02-20T13:33:40;18.30;;;3.60;;
41721;SDS011;27407;24.142;-110.310;2023-02-20T13:36:14;23.77;;;3.00;;
41721;SDS011;27407;24.142;-110.310;2023-02-20T13:39:08;17.67;;;3.07;;
41721;SDS011;27407;24.142;-110.310;2023-02-20T13:52:38;28.30;;;3.57;;
41721;SDS011;27407;24.142;-110.310;2023-02-20T14:03:27;33.83;;;4.10;;
41721;SDS011;27407;24.142;-110.310;2023-02-20T14:06:04;43.30;;;4.37;;
41721;SDS011;27407;24.142;-110.310;2023-02-20T14:08:43;28.17;;;4.13;;
41721;SDS011;27407;24.142;-110.310;2023-02-20T14:11:13;48.03;;;5.17;;
41721;SDS011;27407;24.142;-110.310;2023-02-20T14:14:04;16.37;;;3.73;;
41721;SDS011;27407;24.142;-110.310;2023-02-20T14:16:37;20.13;;;3.57;;
41721;SDS011;27407;24.142;-110.310;2023-02-20T14:19:25;27.33;;;4.37;;
41721;SDS011;27407;24.142;-110.310;2023-02-20T14:21:54;32.07;;;4.17;;
41721;SDS011;27407;24.142;-110.310;2023-02-20T14:24:22;19.13;;;3.60;;
41721;SDS011;27407;24.142;-110.310;2023-02-20T14:26:53;18.73;;;3.20;;
41721;SDS011;27407;24.142;-110.310;2023-02-20T14:29:28;15.83;;;2.60;;
41721;SDS011;27407;24.142;-110.310;2023-02-20T14:31:57;12.97;;;2.80;;
41721;SDS011;27407;24.142;-110.310;2023-02-20T14:42:15;16.70;;;7.87;;
41721;SDS011;27407;24.142;-110.310;2023-02-20T14:44:49;39.77;;;14.07;;
41721;SDS011;27407;24.142;-110.310;2023-02-20T14:47:29;42.13;;;13.73;;
41721;SDS011;27407;24.142;-110.310;2023-02-20T14:52:58;31.10;;;11.00;;
41721;SDS011;27407;24.142;-110.310;2023-02-20T14:55:48;21.17;;;8.00;;
41721;SDS011;27407;24.142;-110.310;2023-02-20T14:58:17;40.60;;;7.37;;
41721;SDS011;27407;24.142;-110.310;2023-02-20T15:00:47;37.10;;;5.90;;
41721;SDS011;27407;24.142;-110.310;2023-02-20T15:03:24;19.53;;;4.37;;
41721;SDS011;27407;24.142;-110.310;2023-02-20T15:05:52;24.23;;;3.70;;
41721;SDS011;27407;24.142;-110.310;2023-02-20T15:08:35;22.30;;;3.57;;
41721;SDS011;27407;24.142;-110.310;2023-02-20T15:11:07;17.03;;;2.57;;
41721;SDS011;27407;24.142;-110.310;2023-02-20T15:13:39;14.77;;;2.87;;
41721;SDS011;27407;24.142;-110.310;2023-02-20T15:18:38;20.07;;;2.37;;
41721;SDS011;27407;24.142;-110.310;2023-02-20T15:21:12;10.53;;;2.20;;
41721;SDS011;27407;24.142;-110.310;2023-02-20T15:23:54;15.37;;;2.30;;
41721;SDS011;27407;24.142;-110.310;2023-02-20T15:26:35;8.67;;;2.03;;
41721;SDS011;27407;24.142;-110.310;2023-02-20T15:31:54;17.93;;;2.03;;
41721;SDS011;27407;24.142;-110.310;2023-02-20T15:34:24;13.63;;;1.97;;
41721;SDS011;27407;24.142;-110.310;2023-02-20T15:36:58;9.17;;;1.87;;
41721;SDS011;27407;24.142;-110.310;2023-02-20T15:39:26;10.37;;;1.83;;
41721;SDS011;27407;24.142;-110.310;2023-02-20T15:41:52;14.57;;;2.20;;
41721;SDS011;27407;24.142;-110.310;2023-02-20T15:44:19;11.07;;;1.70;;
41721;SDS011;27407;24.142;-110.310;2023-02-20T15:46:46;9.00;;;1.77;;
41721;SDS011;27407;24.142;-110.310;2023-02-20T15:49:13;13.63;;;1.67;;
41721;SDS011;27407;24.142;-110.310;2023-02-20T15:51:40;11.17;;;1.93;;
41721;SDS011;27407;24.142;-110.310;2023-02-20T15:54:10;11.37;;;2.80;;
41721;SDS011;27407;24.142;-110.310;2023-02-20T15:56:41;11.53;;;1.83;;
41721;SDS011;27407;24.142;-110.310;2023-02-20T15:59:08;16.07;;;2.17;;
41721;SDS011;27407;24.142;-110.310;2023-02-20T16:01:36;24.43;;;2.00;;
41721;SDS011;27407;24.142;-110.310;2023-02-20T16:04:04;7.93;;;1.70;;
41721;SDS011;27407;24.142;-110.310;2023-02-20T16:06:32;10.37;;;1.57;;
41721;SDS011;27407;24.142;-110.310;2023-02-20T16:09:06;11.33;;;1.93;;
41721;SDS011;27407;24.142;-110.310;2023-02-20T16:11:34;32.53;;;2.87;;
41721;SDS011;27407;24.142;-110.310;2023-02-20T16:14:14;24.53;;;2.40;;
41721;SDS011;27407;24.142;-110.310;2023-02-20T16:16:44;102.97;;;7.60;;
41721;SDS011;27407;24.142;-110.310;2023-02-20T16:19:16;16.87;;;2.60;;
41721;SDS011;27407;24.142;-110.310;2023-02-20T16:21:44;12.90;;;2.13;;
41721;SDS011;27407;24.142;-110.310;2023-02-20T16:24:12;18.20;;;2.50;;
41721;SDS011;27407;24.142;-110.310;2023-02-20T16:26:39;26.03;;;6.87;;
41721;SDS011;27407;24.142;-110.310;2023-02-20T16:29:21;24.40;;;3.53;;
41721;SDS011;27407;24.142;-110.310;2023-02-20T16:34:26;24.37;;;3.60;;
41721;SDS011;27407;24.142;-110.310;2023-02-20T16:36:55;11.77;;;2.27;;
41721;SDS011;27407;24.142;-110.310;2023-02-20T16:39:22;16.47;;;2.27;;
41721;SDS011;27407;24.142;-110.310;2023-02-20T16:41:49;19.97;;;2.40;;
41721;SDS011;27407;24.142;-110.310;2023-02-20T16:47:20;40.67;;;4.67;;
41721;SDS011;27407;24.142;-110.310;2023-02-20T16:49:49;23.73;;;4.13;;
41721;SDS011;27407;24.142;-110.310;2023-02-20T16:52:34;25.90;;;3.67;;
41721;SDS011;27407;24.142;-110.310;2023-02-20T16:55:03;16.33;;;3.53;;
41721;SDS011;27407;24.142;-110.310;2023-02-20T16:57:31;16.17;;;4.07;;
41721;SDS011;27407;24.142;-110.310;2023-02-20T16:59:58;27.37;;;2.93;;
41721;SDS011;27407;24.142;-110.310;2023-02-20T17:02:29;48.83;;;5.13;;